createdAt,value
2023-03-28T00:00:19.862Z,97.18
2023-03-28T00:02:47.473Z,96.63
2023-03-28T00:05:14.879Z,95.95
2023-03-28T00:07:42.439Z,95.17
2023-03-28T00:10:09.968Z,93.76
2023-03-28T00:12:37.240Z,94.41
2023-03-28T00:15:04.793Z,94.81
2023-03-28T00:17:32.148Z,94.86
2023-03-28T00:20:02.648Z,94.49
2023-03-28T00:22:30.571Z,93.37
2023-03-28T00:25:00.820Z,93.26
2023-03-28T00:27:28.035Z,93.05
2023-03-28T00:29:55.271Z,93.25
2023-03-28T00:32:22.462Z,93.08
2023-03-28T00:34:49.704Z,92.98
2023-03-28T00:37:17.317Z,93.32
2023-03-28T00:39:49.995Z,94.78
2023-03-28T00:42:18.543Z,95.20
2023-03-28T00:44:50.786Z,95.42
2023-03-28T00:47:26.100Z,95.86
2023-03-28T00:49:56.772Z,95.56
2023-03-28T00:52:25.684Z,96.47
2023-03-28T00:54:53.732Z,95.50
2023-03-28T00:57:20.913Z,95.50
2023-03-28T00:59:48.182Z,95.13
2023-03-28T01:02:15.520Z,94.56
2023-03-28T01:04:59.276Z,94.23
2023-03-28T01:07:31.324Z,92.89
2023-03-28T01:09:58.620Z,93.04
2023-03-28T01:12:26.030Z,93.01
2023-03-28T01:14:53.240Z,92.64
2023-03-28T01:17:21.105Z,92.52
2023-03-28T01:19:58.739Z,92.28
2023-03-28T01:22:57.295Z,91.79
2023-03-28T01:25:47.418Z,92.16
2023-03-28T01:28:43.859Z,91.79
2023-03-28T01:31:21.423Z,91.85
2023-03-28T01:33:57.819Z,91.84
2023-03-28T01:36:46.503Z,91.11
2023-03-28T01:39:23.212Z,91.37
2023-03-28T01:41:56.200Z,91.26
2023-03-28T01:44:49.401Z,90.69
2023-03-28T01:47:33.048Z,90.83
2023-03-28T01:50:19.654Z,91.20
2023-03-28T01:52:46.785Z,90.98
2023-03-28T01:55:41.875Z,90.88
2023-03-28T01:58:32.868Z,91.60
2023-03-28T02:01:05.472Z,91.91
2023-03-28T02:03:35.874Z,94.94
2023-03-28T02:06:06.117Z,96.79
2023-03-28T02:08:36.601Z,98.30
2023-03-28T02:11:53.575Z,99.28
2023-03-28T02:14:46.827Z,98.53
2023-03-28T02:17:16.258Z,99.05
2023-03-28T02:19:48.956Z,99.47
2023-03-28T02:22:27.029Z,99.71
2023-03-28T02:24:54.251Z,100.00
2023-03-28T02:27:22.758Z,100.00
2023-03-28T02:29:50.005Z,100.00
2023-03-28T02:32:17.857Z,100.00
2023-03-28T02:34:46.721Z,100.00
2023-03-28T02:37:14.025Z,99.90
2023-03-28T02:40:02.245Z,99.72
2023-03-28T02:42:43.315Z,99.08
2023-03-28T02:45:34.476Z,98.40
2023-03-28T02:48:10.582Z,97.55
2023-03-28T02:51:04.093Z,97.42
2023-03-28T02:53:56.756Z,96.87
2023-03-28T02:56:42.802Z,96.21
2023-03-28T02:59:18.769Z,95.39
2023-03-28T03:01:47.361Z,94.80
2023-03-28T03:04:17.343Z,94.89
2023-03-28T03:06:48.456Z,94.64
2023-03-28T03:09:16.607Z,93.95
2023-03-28T03:11:43.748Z,92.97
2023-03-28T03:14:12.120Z,91.23
2023-03-28T03:16:39.421Z,90.82
2023-03-28T03:19:07.545Z,90.62
2023-03-28T03:21:36.441Z,90.87
2023-03-28T03:24:04.228Z,90.48
2023-03-28T03:26:31.407Z,89.66
2023-03-28T03:29:00.702Z,89.73
2023-03-28T03:31:28.015Z,90.07
2023-03-28T03:33:55.274Z,90.97
2023-03-28T03:36:22.433Z,91.34
2023-03-28T03:38:49.564Z,91.94
2023-03-28T03:41:16.690Z,92.36
2023-03-28T03:43:45.297Z,92.53
2023-03-28T03:46:14.357Z,93.80
2023-03-28T03:48:49.268Z,94.22
2023-03-28T03:51:17.295Z,95.02
2023-03-28T03:53:44.957Z,95.55
2023-03-28T03:56:12.572Z,95.88
2023-03-28T03:58:39.745Z,95.82
2023-03-28T04:01:09.820Z,96.24
2023-03-28T04:03:37.625Z,96.37
2023-03-28T04:06:05.250Z,97.02
2023-03-28T04:08:33.319Z,97.39
2023-03-28T04:11:00.549Z,97.41
2023-03-28T04:13:27.753Z,97.43
2023-03-28T04:15:55.052Z,96.87
2023-03-28T04:18:22.213Z,97.59
2023-03-28T04:20:55.301Z,96.76
2023-03-28T04:23:25.993Z,96.43
2023-03-28T04:25:57.423Z,96.63
2023-03-28T04:28:25.931Z,97.18
2023-03-28T04:30:54.629Z,96.81
2023-03-28T04:33:25.190Z,97.15
2023-03-28T04:36:00.471Z,96.57
2023-03-28T04:38:29.791Z,97.05
2023-03-28T04:40:59.688Z,97.32
2023-03-28T04:43:27.983Z,98.72
2023-03-28T04:45:55.685Z,98.51
2023-03-28T04:48:24.183Z,98.60
2023-03-28T04:50:51.534Z,98.90
2023-03-28T04:53:18.979Z,98.61
2023-03-28T04:55:50.520Z,98.00
2023-03-28T04:58:19.376Z,97.97
2023-03-28T05:00:47.096Z,98.25
2023-03-28T05:03:18.273Z,97.31
2023-03-28T05:05:47.469Z,98.32
2023-03-28T05:08:17.053Z,97.23
2023-03-28T05:10:45.867Z,97.10
2023-03-28T05:13:13.452Z,97.84
2023-03-28T05:15:42.249Z,97.37
2023-03-28T05:18:11.682Z,97.70
2023-03-28T05:20:39.195Z,97.00
2023-03-28T05:23:07.279Z,96.09
2023-03-28T05:25:34.786Z,95.42
2023-03-28T05:28:01.994Z,96.28
2023-03-28T05:30:29.095Z,96.98
2023-03-28T05:32:56.813Z,96.18
2023-03-28T05:35:24.052Z,96.10
2023-03-28T05:37:51.544Z,96.94
2023-03-28T05:40:18.895Z,96.87
2023-03-28T05:42:46.327Z,96.69
2023-03-28T05:45:13.852Z,96.45
2023-03-28T05:47:41.626Z,95.23
2023-03-28T05:50:09.329Z,95.60
2023-03-28T05:52:36.845Z,95.17
2023-03-28T05:55:04.465Z,93.37
2023-03-28T05:57:31.713Z,93.40
2023-03-28T05:59:59.254Z,92.71
2023-03-28T06:02:26.495Z,92.88
2023-03-28T06:04:54.658Z,92.87
2023-03-28T06:07:35.218Z,92.42
2023-03-28T06:10:10.780Z,92.70
2023-03-28T06:12:38.108Z,93.39
2023-03-28T06:15:06.084Z,93.02
2023-03-28T06:17:33.265Z,92.99
2023-03-28T06:20:00.767Z,93.20
2023-03-28T06:22:27.970Z,93.41
2023-03-28T06:24:55.238Z,92.13
2023-03-28T06:27:22.431Z,92.23
2023-03-28T06:29:49.750Z,91.96
2023-03-28T06:32:18.142Z,91.51
2023-03-28T06:34:45.686Z,90.82
2023-03-28T06:37:12.826Z,90.08
2023-03-28T06:39:39.962Z,90.13
2023-03-28T06:42:07.132Z,89.90
2023-03-28T06:44:34.304Z,89.47
2023-03-28T06:47:02.551Z,89.15
2023-03-28T06:49:29.889Z,88.59
2023-03-28T06:51:56.979Z,88.02
2023-03-28T06:54:24.205Z,87.24
2023-03-28T06:56:51.423Z,87.44
2023-03-28T06:59:18.674Z,86.89
2023-03-28T07:01:45.899Z,86.29
2023-03-28T07:04:13.112Z,86.27
2023-03-28T07:06:41.248Z,85.87
2023-03-28T07:09:08.490Z,84.31
2023-03-28T07:11:35.700Z,83.41
2023-03-28T07:14:02.858Z,83.49
2023-03-28T07:16:30.178Z,82.49
2023-03-28T07:18:57.452Z,83.07
2023-03-28T07:21:24.574Z,83.12
2023-03-28T07:23:51.754Z,83.37
2023-03-28T07:26:18.839Z,81.02
2023-03-28T07:28:46.214Z,80.10
2023-03-28T07:31:13.430Z,79.75
2023-03-28T07:33:40.856Z,79.37
2023-03-28T07:36:13.843Z,80.09
2023-03-28T07:38:41.158Z,78.84
2023-03-28T07:41:09.111Z,78.18
2023-03-28T07:43:38.666Z,77.52
2023-03-28T07:46:11.389Z,78.35
2023-03-28T07:48:38.650Z,77.05
2023-03-28T07:51:06.426Z,75.55
2023-03-28T07:53:34.898Z,75.36
2023-03-28T07:56:02.055Z,72.99
2023-03-28T07:58:29.167Z,70.34
2023-03-28T08:00:56.398Z,69.64
2023-03-28T08:03:23.995Z,70.97
2023-03-28T08:05:54.227Z,69.36
2023-03-28T08:08:21.703Z,67.28
2023-03-28T08:10:51.901Z,67.12
2023-03-28T08:13:21.220Z,67.96
2023-03-28T08:15:55.608Z,67.64
2023-03-28T08:18:25.101Z,66.50
2023-03-28T08:20:59.269Z,65.87
2023-03-28T08:23:26.958Z,64.33
2023-03-28T08:26:06.286Z,60.55
2023-03-28T08:28:34.668Z,61.59
2023-03-28T08:31:02.729Z,61.18
2023-03-28T08:33:32.721Z,60.48
2023-03-28T08:36:00.015Z,59.65
2023-03-28T08:38:27.196Z,59.77
2023-03-28T08:41:07.263Z,59.11
2023-03-28T08:43:43.322Z,58.11
2023-03-28T08:46:13.866Z,57.13
2023-03-28T08:48:44.581Z,56.76
2023-03-28T08:51:28.189Z,54.43
2023-03-28T08:54:14.792Z,54.94
2023-03-28T08:56:49.049Z,52.96
2023-03-28T08:59:17.542Z,53.59
2023-03-28T09:01:45.020Z,55.68
2023-03-28T09:04:34.927Z,55.40
2023-03-28T09:07:16.678Z,56.11
2023-03-28T09:10:08.444Z,57.20
2023-03-28T09:12:44.205Z,55.81
2023-03-28T09:15:20.225Z,50.81
2023-03-28T09:18:06.802Z,52.58
2023-03-28T09:20:43.193Z,51.60
2023-03-28T09:23:28.961Z,51.13
2023-03-28T09:26:20.194Z,50.90
2023-03-28T09:29:05.811Z,50.71
2023-03-28T09:31:38.196Z,49.60
2023-03-28T09:34:07.050Z,50.11
2023-03-28T09:36:48.439Z,50.80
2023-03-28T09:39:29.043Z,51.10
2023-03-28T09:42:14.432Z,51.62
2023-03-28T09:44:54.604Z,50.40
2023-03-28T09:47:22.481Z,51.03
2023-03-28T09:49:54.362Z,50.39
2023-03-28T09:52:31.503Z,50.07
2023-03-28T09:55:00.450Z,49.76
2023-03-28T09:57:27.623Z,49.98
2023-03-28T09:59:58.294Z,50.24
2023-03-28T10:02:32.293Z,50.49
2023-03-28T10:04:59.982Z,49.99
2023-03-28T10:07:33.624Z,50.71
2023-03-28T10:10:10.226Z,50.81
2023-03-28T10:12:39.082Z,51.74
2023-03-28T10:15:08.759Z,50.46
2023-03-28T10:17:37.336Z,49.49
2023-03-28T10:20:15.502Z,50.48
2023-03-28T10:22:44.804Z,50.21
2023-03-28T10:25:17.584Z,49.96
2023-03-28T10:27:44.687Z,49.23
2023-03-28T10:30:16.070Z,50.35
2023-03-28T10:32:43.395Z,49.64
2023-03-28T10:35:26.223Z,49.51
2023-03-28T10:37:56.841Z,48.20
2023-03-28T10:40:28.005Z,47.98
2023-03-28T10:42:56.317Z,48.14
2023-03-28T10:45:32.449Z,49.11
2023-03-28T10:48:01.137Z,49.18
2023-03-28T10:50:36.831Z,47.47
2023-03-28T10:53:13.611Z,46.73
2023-03-28T10:55:58.818Z,46.54
2023-03-28T10:58:31.591Z,47.01
2023-03-28T11:01:05.784Z,47.92
2023-03-28T11:03:50.908Z,45.58
2023-03-28T11:06:23.065Z,46.16
2023-03-28T11:09:03.841Z,46.93
2023-03-28T11:11:31.112Z,45.82
2023-03-28T11:14:32.091Z,44.44
2023-03-28T11:17:07.305Z,44.98
2023-03-28T11:19:52.128Z,45.56
2023-03-28T11:22:37.549Z,45.82
2023-03-28T11:25:19.612Z,45.32
2023-03-28T11:27:59.239Z,43.17
2023-03-28T11:30:33.364Z,42.60
2023-03-28T11:33:11.195Z,42.71
2023-03-28T11:35:49.921Z,43.05
2023-03-28T11:38:42.162Z,42.47
2023-03-28T11:41:23.312Z,42.81
2023-03-28T11:44:22.067Z,42.42
2023-03-28T11:46:57.427Z,41.77
2023-03-28T11:49:33.978Z,41.72
2023-03-28T11:52:13.102Z,41.31
2023-03-28T11:54:49.790Z,41.11
2023-03-28T11:57:30.129Z,40.12
2023-03-28T12:00:00.666Z,40.89
2023-03-28T12:02:52.259Z,40.16
2023-03-28T12:05:37.577Z,38.91
2023-03-28T12:08:14.742Z,38.79
2023-03-28T12:10:48.148Z,38.52
2023-03-28T12:13:21.868Z,39.97
2023-03-28T12:16:10.185Z,37.90
2023-03-28T12:19:07.974Z,35.91
2023-03-28T12:22:01.409Z,37.39
2023-03-28T12:24:44.865Z,36.92
2023-03-28T12:27:29.433Z,37.30
2023-03-28T12:30:00.202Z,38.20
2023-03-28T12:32:50.142Z,35.81
2023-03-28T12:35:50.298Z,36.02
2023-03-28T12:38:35.832Z,36.21
2023-03-28T12:41:06.655Z,34.98
2023-03-28T12:43:47.947Z,32.03
2023-03-28T12:46:48.275Z,29.53
2023-03-28T12:49:26.087Z,28.13
2023-03-28T12:51:55.364Z,25.34
2023-03-28T12:54:36.132Z,29.34
2023-03-28T12:57:09.332Z,23.45
2023-03-28T12:59:39.262Z,21.98
2023-03-28T13:02:16.412Z,19.17
2023-03-28T13:05:18.869Z,17.52
2023-03-28T13:08:18.913Z,17.08
2023-03-28T13:10:54.895Z,17.04
2023-03-28T13:13:30.678Z,14.95
2023-03-28T13:16:05.738Z,15.27
2023-03-28T13:18:46.062Z,14.44
2023-03-28T13:21:43.302Z,14.47
2023-03-28T13:24:25.985Z,12.80
2023-03-28T13:26:57.941Z,13.88
2023-03-28T13:29:44.021Z,15.89
2023-03-28T13:32:15.254Z,15.56
2023-03-28T13:34:59.873Z,17.27
2023-03-28T13:37:47.634Z,19.59
2023-03-28T13:40:40.631Z,20.57
2023-03-28T13:43:43.541Z,21.24
2023-03-28T13:46:17.355Z,22.41
2023-03-28T13:49:19.062Z,23.45
2023-03-28T13:51:55.726Z,25.82
2023-03-28T13:54:23.885Z,25.66
2023-03-28T13:56:52.440Z,24.95
2023-03-28T13:59:23.994Z,24.05
2023-03-28T14:01:57.329Z,22.83
2023-03-28T14:04:35.365Z,23.64
2023-03-28T14:07:05.783Z,19.89
2023-03-28T14:09:36.658Z,19.15
2023-03-28T14:12:09.458Z,18.70
2023-03-28T14:14:42.218Z,16.97
2023-03-28T14:17:16.199Z,16.78
2023-03-28T14:19:50.801Z,16.87
2023-03-28T14:22:21.267Z,17.21
2023-03-28T14:24:51.501Z,14.78
2023-03-28T14:27:37.867Z,14.74
2023-03-28T14:30:34.661Z,14.15
2023-03-28T14:33:07.350Z,13.45
2023-03-28T14:35:36.870Z,13.24
2023-03-28T14:38:06.227Z,13.18
2023-03-28T14:40:38.761Z,14.11
2023-03-28T14:43:17.078Z,12.23
2023-03-28T14:45:48.048Z,12.93
2023-03-28T14:48:20.004Z,13.89
2023-03-28T14:50:50.204Z,11.90
2023-03-28T14:53:19.679Z,11.91
2023-03-28T14:55:49.702Z,11.74
2023-03-28T14:58:19.034Z,12.54
2023-03-28T15:00:48.036Z,16.38
2023-03-28T15:03:32.206Z,18.18
2023-03-28T15:05:59.969Z,18.02
2023-03-28T15:08:31.644Z,15.88
2023-03-28T15:11:04.180Z,17.55
2023-03-28T15:13:39.242Z,17.58
2023-03-28T15:16:07.946Z,19.31
2023-03-28T15:18:48.951Z,17.29
2023-03-28T15:21:16.464Z,16.00
2023-03-28T15:23:54.738Z,16.32
2023-03-28T15:26:28.582Z,18.37
2023-03-28T15:28:56.874Z,17.16
2023-03-28T15:31:25.213Z,17.00
2023-03-28T15:33:53.750Z,16.31
2023-03-28T15:36:28.898Z,14.76
2023-03-28T15:38:59.957Z,16.31
2023-03-28T15:41:31.652Z,17.29
2023-03-28T15:44:10.390Z,20.43
2023-03-28T15:46:37.604Z,21.93
2023-03-28T15:49:06.427Z,23.05
2023-03-28T15:51:52.506Z,22.93
2023-03-28T15:54:30.063Z,24.41
2023-03-28T15:56:59.592Z,25.82
2023-03-28T15:59:32.994Z,26.73
2023-03-28T16:02:26.898Z,27.01
2023-03-28T16:05:16.043Z,28.07
2023-03-28T16:07:47.448Z,28.31
2023-03-28T16:10:20.115Z,28.94
2023-03-28T16:12:50.502Z,29.95
2023-03-28T16:15:18.667Z,29.37
2023-03-28T16:17:49.187Z,28.76
2023-03-28T16:20:21.451Z,29.46
2023-03-28T16:22:49.056Z,28.18
2023-03-28T16:25:16.512Z,28.60
2023-03-28T16:27:44.009Z,29.03
2023-03-28T16:30:25.319Z,29.92
2023-03-28T16:32:52.877Z,29.91
2023-03-28T16:35:22.649Z,30.48
2023-03-28T16:37:53.154Z,30.53
2023-03-28T16:40:21.729Z,30.73
2023-03-28T16:42:52.666Z,31.65
2023-03-28T16:45:20.598Z,31.98
2023-03-28T16:47:49.017Z,32.37
2023-03-28T16:50:16.547Z,32.04
2023-03-28T16:52:43.886Z,33.02
2023-03-28T16:55:14.350Z,32.95
2023-03-28T16:57:42.153Z,33.38
2023-03-28T17:00:16.122Z,33.63
2023-03-28T17:02:59.393Z,33.12
2023-03-28T17:05:37.003Z,33.49
2023-03-28T17:08:04.646Z,34.44
2023-03-28T17:10:33.215Z,34.72
2023-03-28T17:13:02.717Z,34.67
2023-03-28T17:15:33.818Z,34.97
2023-03-28T17:18:01.661Z,34.82
2023-03-28T17:20:32.726Z,35.45
2023-03-28T17:23:00.000Z,35.21
2023-03-28T17:25:27.412Z,35.08
2023-03-28T17:27:54.558Z,35.71
2023-03-28T17:30:21.867Z,36.18
2023-03-28T17:32:51.409Z,36.66
2023-03-28T17:35:18.976Z,36.68
2023-03-28T17:37:46.198Z,36.64
2023-03-28T17:40:14.501Z,36.33
2023-03-28T17:42:46.995Z,36.90
2023-03-28T17:45:14.428Z,37.05
2023-03-28T17:47:41.945Z,37.44
2023-03-28T17:50:09.484Z,37.22
2023-03-28T17:52:37.646Z,37.58
2023-03-28T17:55:06.247Z,37.60
2023-03-28T17:57:36.465Z,38.27
2023-03-28T18:00:05.379Z,38.29
2023-03-28T18:02:38.449Z,37.94
2023-03-28T18:05:06.517Z,38.43
2023-03-28T18:07:35.056Z,38.96
2023-03-28T18:10:02.976Z,38.40
2023-03-28T18:12:30.902Z,38.82
2023-03-28T18:15:00.431Z,39.26
2023-03-28T18:17:29.586Z,39.72
2023-03-28T18:19:57.663Z,39.82
2023-03-28T18:22:25.080Z,40.30
2023-03-28T18:24:52.304Z,40.17
2023-03-28T18:27:19.745Z,40.60
2023-03-28T18:29:47.932Z,40.54
2023-03-28T18:32:17.912Z,40.75
2023-03-28T18:34:45.421Z,40.67
2023-03-28T18:37:12.850Z,41.03
2023-03-28T18:39:41.672Z,40.88
2023-03-28T18:42:08.978Z,41.29
2023-03-28T18:44:37.056Z,41.31
2023-03-28T18:47:05.259Z,41.43
2023-03-28T18:49:34.626Z,41.47
2023-03-28T18:52:05.114Z,41.65
2023-03-28T18:54:34.162Z,41.90
2023-03-28T18:57:01.577Z,42.37
2023-03-28T18:59:29.931Z,42.30
2023-03-28T19:01:58.580Z,43.25
2023-03-28T19:04:26.507Z,43.45
2023-03-28T19:06:53.804Z,43.33
2023-03-28T19:09:21.189Z,43.71
2023-03-28T19:11:52.478Z,44.76
2023-03-28T19:14:19.740Z,46.21
2023-03-28T19:16:47.216Z,45.64
2023-03-28T19:19:15.309Z,45.43
2023-03-28T19:21:42.564Z,45.81
2023-03-28T19:24:09.833Z,46.39
2023-03-28T19:26:37.886Z,46.12
2023-03-28T19:29:05.965Z,47.18
2023-03-28T19:31:33.388Z,47.29
2023-03-28T19:34:00.927Z,47.92
2023-03-28T19:36:28.262Z,48.29
2023-03-28T19:38:55.522Z,48.06
2023-03-28T19:41:24.294Z,49.30
2023-03-28T19:43:51.542Z,48.99
2023-03-28T19:46:30.738Z,49.51
2023-03-28T19:49:01.548Z,50.15
2023-03-28T19:51:29.037Z,50.53
2023-03-28T19:53:56.420Z,50.70
2023-03-28T19:56:23.703Z,51.82
2023-03-28T19:58:52.159Z,52.19
2023-03-28T20:01:19.824Z,52.85
2023-03-28T20:03:52.207Z,53.30
2023-03-28T20:06:22.750Z,52.69
2023-03-28T20:08:50.813Z,52.75
2023-03-28T20:11:18.534Z,52.28
2023-03-28T20:13:47.655Z,52.12
2023-03-28T20:16:15.113Z,51.80
2023-03-28T20:18:42.759Z,51.98
2023-03-28T20:21:11.972Z,52.68
2023-03-28T20:23:39.179Z,52.10
2023-03-28T20:26:18.390Z,52.95
2023-03-28T20:28:49.591Z,52.54
2023-03-28T20:31:18.015Z,53.09
2023-03-28T20:33:46.304Z,53.33
2023-03-28T20:36:13.564Z,54.70
2023-03-28T20:38:40.858Z,54.67
2023-03-28T20:41:15.760Z,54.26
2023-03-28T20:43:50.228Z,53.70
2023-03-28T20:46:19.151Z,54.26
2023-03-28T20:48:52.674Z,55.22
2023-03-28T20:51:22.609Z,55.32
2023-03-28T20:53:54.276Z,55.73
2023-03-28T20:56:21.924Z,55.15
2023-03-28T20:58:50.499Z,56.94
2023-03-28T21:01:18.606Z,56.66
2023-03-28T21:03:49.677Z,56.17
2023-03-28T21:06:22.360Z,56.20
2023-03-28T21:08:50.913Z,56.73
2023-03-28T21:11:19.846Z,56.08
2023-03-28T21:13:47.157Z,56.62
2023-03-28T21:16:14.902Z,56.68
2023-03-28T21:18:42.185Z,57.27
2023-03-28T21:21:10.959Z,56.88
2023-03-28T21:23:39.125Z,57.44
2023-03-28T21:26:07.897Z,57.38
2023-03-28T21:28:37.624Z,56.20
2023-03-28T21:31:11.365Z,56.58
2023-03-28T21:33:38.937Z,56.62
2023-03-28T21:36:07.611Z,56.59
2023-03-28T21:38:35.582Z,56.45
2023-03-28T21:41:07.332Z,56.40
2023-03-28T21:43:35.627Z,56.79
2023-03-28T21:46:03.662Z,56.30
2023-03-28T21:48:31.245Z,56.78
2023-03-28T21:50:59.893Z,56.80
2023-03-28T21:53:32.220Z,56.80
2023-03-28T21:55:59.961Z,57.37
2023-03-28T21:58:29.905Z,57.29
2023-03-28T22:00:57.293Z,57.40
2023-03-28T22:03:25.667Z,58.14
2023-03-28T22:05:53.538Z,57.94
2023-03-28T22:08:22.126Z,57.75
2023-03-28T22:10:55.413Z,57.58
2023-03-28T22:13:23.890Z,58.81
2023-03-28T22:15:52.439Z,58.53
2023-03-28T22:18:20.950Z,58.64
2023-03-28T22:20:53.180Z,58.50
2023-03-28T22:23:22.345Z,58.93
2023-03-28T22:25:50.297Z,58.11
2023-03-28T22:28:18.874Z,59.52
2023-03-28T22:30:48.411Z,59.46
2023-03-28T22:33:18.378Z,60.22
2023-03-28T22:35:52.278Z,60.47
2023-03-28T22:38:19.646Z,59.34
2023-03-28T22:40:47.788Z,60.58
2023-03-28T22:43:16.379Z,60.29
2023-03-28T22:45:43.652Z,60.28
2023-03-28T22:48:17.231Z,60.97
2023-03-28T22:50:44.641Z,61.01
2023-03-28T22:53:12.686Z,60.98
2023-03-28T22:55:41.668Z,61.44
2023-03-28T22:58:08.884Z,62.56
2023-03-28T23:00:36.258Z,62.04
2023-03-28T23:03:08.112Z,61.83
2023-03-28T23:05:36.437Z,62.63
2023-03-28T23:08:04.772Z,62.42
2023-03-28T23:10:35.759Z,62.33
2023-03-28T23:13:03.179Z,62.52
2023-03-28T23:15:30.383Z,63.19
2023-03-28T23:17:58.617Z,62.69
2023-03-28T23:20:26.477Z,63.37
2023-03-28T23:22:53.705Z,63.58
2023-03-28T23:25:22.066Z,62.89
2023-03-28T23:27:49.389Z,63.11
2023-03-28T23:30:17.085Z,63.19
2023-03-28T23:32:44.700Z,64.46
2023-03-28T23:35:12.079Z,64.71
2023-03-28T23:37:39.729Z,64.15
2023-03-28T23:40:14.107Z,64.30
2023-03-28T23:42:44.022Z,64.17
2023-03-28T23:45:13.873Z,64.02
2023-03-28T23:47:41.962Z,64.37
2023-03-28T23:50:10.139Z,65.22
2023-03-28T23:52:37.290Z,65.29
2023-03-28T23:55:04.927Z,64.30
2023-03-28T23:57:32.614Z,64.93
2023-03-28T23:59:59.835Z,67.16
